sensor_id;sensor_type;location;lat;lon;timestamp;temperature;humidity
71523;HTU21D;59343;51.102;5.884;2023-10-13T00:00:59;19.69;86.70
71523;HTU21D;59343;51.102;5.884;2023-10-13T00:03:38;19.69;86.63
71523;HTU21D;59343;51.102;5.884;2023-10-13T00:06:07;19.73;86.43
71523;HTU21D;59343;51.102;5.884;2023-10-13T00:17:20;19.69;86.57
71523;HTU21D;59343;51.102;5.884;2023-10-13T00:19:53;19.69;86.54
71523;HTU21D;59343;51.102;5.884;2023-10-13T00:27:25;19.73;86.55
71523;HTU21D;59343;51.102;5.884;2023-10-13T00:30:06;19.72;86.57
71523;HTU21D;59343;51.102;5.884;2023-10-13T00:33:06;19.72;86.60
71523;HTU21D;59343;51.102;5.884;2023-10-13T00:35:43;19.72;86.57
71523;HTU21D;59343;51.102;5.884;2023-10-13T00:38:11;19.72;86.66
71523;HTU21D;59343;51.102;5.884;2023-10-13T00:40:44;19.72;86.62
71523;HTU21D;59343;51.102;5.884;2023-10-13T00:43:30;19.71;86.70
71523;HTU21D;59343;51.102;5.884;2023-10-13T00:46:02;19.69;86.85
71523;HTU21D;59343;51.102;5.884;2023-10-13T00:48:34;19.69;86.96
71523;HTU21D;59343;51.102;5.884;2023-10-13T00:51:09;19.70;86.91
71523;HTU21D;59343;51.102;5.884;2023-10-13T00:53:46;19.68;87.10
71523;HTU21D;59343;51.102;5.884;2023-10-13T00:56:14;19.68;87.20
71523;HTU21D;59343;51.102;5.884;2023-10-13T00:59:03;19.67;87.24
71523;HTU21D;59343;51.102;5.884;2023-10-13T01:01:32;19.65;87.22
71523;HTU21D;59343;51.102;5.884;2023-10-13T01:04:04;19.65;87.41
71523;HTU21D;59343;51.102;5.884;2023-10-13T01:06:34;19.62;87.47
71523;HTU21D;59343;51.102;5.884;2023-10-13T01:09:09;19.61;87.64
71523;HTU21D;59343;51.102;5.884;2023-10-13T01:11:47;19.59;87.67
71523;HTU21D;59343;51.102;5.884;2023-10-13T01:14:19;19.58;87.73
71523;HTU21D;59343;51.102;5.884;2023-10-13T01:17:08;19.58;87.84
71523;HTU21D;59343;51.102;5.884;2023-10-13T01:19:37;19.57;87.87
71523;HTU21D;59343;51.102;5.884;2023-10-13T01:22:09;19.56;87.93
71523;HTU21D;59343;51.102;5.884;2023-10-13T01:24:36;19.56;88.04
71523;HTU21D;59343;51.102;5.884;2023-10-13T01:27:03;19.55;88.12
71523;HTU21D;59343;51.102;5.884;2023-10-13T01:29:51;19.55;88.24
71523;HTU21D;59343;51.102;5.884;2023-10-13T01:32:24;19.56;88.25
71523;HTU21D;59343;51.102;5.884;2023-10-13T01:34:52;19.53;88.41
71523;HTU21D;59343;51.102;5.884;2023-10-13T01:37:27;19.53;88.56
71523;HTU21D;59343;51.102;5.884;2023-10-13T01:40:01;19.56;88.57
71523;HTU21D;59343;51.102;5.884;2023-10-13T01:42:35;19.58;88.47
71523;HTU21D;59343;51.102;5.884;2023-10-13T01:45:05;19.59;88.51
71523;HTU21D;59343;51.102;5.884;2023-10-13T01:47:40;19.59;88.57
71523;HTU21D;59343;51.102;5.884;2023-10-13T01:50:08;19.59;88.67
71523;HTU21D;59343;51.102;5.884;2023-10-13T01:52:55;19.59;88.81
71523;HTU21D;59343;51.102;5.884;2023-10-13T01:55:48;19.59;88.71
71523;HTU21D;59343;51.102;5.884;2023-10-13T01:58:19;19.60;88.81
71523;HTU21D;59343;51.102;5.884;2023-10-13T02:00:52;19.61;88.83
71523;HTU21D;59343;51.102;5.884;2023-10-13T02:03:22;19.61;88.96
71523;HTU21D;59343;51.102;5.884;2023-10-13T02:05:51;19.62;89.06
71523;HTU21D;59343;51.102;5.884;2023-10-13T02:09:57;19.63;89.05
71523;HTU21D;59343;51.102;5.884;2023-10-13T02:13:17;19.65;89.06
71523;HTU21D;59343;51.102;5.884;2023-10-13T02:15:55;19.68;89.18
71523;HTU21D;59343;51.102;5.884;2023-10-13T02:18:30;19.70;89.08
71523;HTU21D;59343;51.102;5.884;2023-10-13T02:21:09;19.69;89.21
71523;HTU21D;59343;51.102;5.884;2023-10-13T02:23:40;19.70;89.26
71523;HTU21D;59343;51.102;5.884;2023-10-13T02:26:26;19.71;89.28
71523;HTU21D;59343;51.102;5.884;2023-10-13T02:29:07;19.73;89.29
71523;HTU21D;59343;51.102;5.884;2023-10-13T02:31:39;19.73;89.42
71523;HTU21D;59343;51.102;5.884;2023-10-13T02:34:10;19.75;89.49
71523;HTU21D;59343;51.102;5.884;2023-10-13T02:36:43;19.76;89.41
71523;HTU21D;59343;51.102;5.884;2023-10-13T02:39:42;19.77;89.31
71523;HTU21D;59343;51.102;5.884;2023-10-13T02:42:19;19.79;89.16
71523;HTU21D;59343;51.102;5.884;2023-10-13T02:44:56;19.77;89.31
71523;HTU21D;59343;51.102;5.884;2023-10-13T02:47:24;19.80;89.26
71523;HTU21D;59343;51.102;5.884;2023-10-13T02:49:53;19.80;89.31
71523;HTU21D;59343;51.102;5.884;2023-10-13T02:52:23;19.79;89.24
71523;HTU21D;59343;51.102;5.884;2023-10-13T02:54:54;19.79;89.28
71523;HTU21D;59343;51.102;5.884;2023-10-13T02:57:20;19.76;89.25
71523;HTU21D;59343;51.102;5.884;2023-10-13T02:59:49;19.75;89.32
71523;HTU21D;59343;51.102;5.884;2023-10-13T03:02:27;19.73;89.50
71523;HTU21D;59343;51.102;5.884;2023-10-13T03:05:01;19.73;89.60
71523;HTU21D;59343;51.102;5.884;2023-10-13T03:07:37;19.73;89.73
71523;HTU21D;59343;51.102;5.884;2023-10-13T03:10:07;19.75;89.60
71523;HTU21D;59343;51.102;5.884;2023-10-13T03:12:40;19.75;89.66
71523;HTU21D;59343;51.102;5.884;2023-10-13T03:15:10;19.72;89.76
71523;HTU21D;59343;51.102;5.884;2023-10-13T03:17:47;19.75;89.76
71523;HTU21D;59343;51.102;5.884;2023-10-13T03:20:28;19.72;89.91
71523;HTU21D;59343;51.102;5.884;2023-10-13T03:23:06;19.72;89.95
71523;HTU21D;59343;51.102;5.884;2023-10-13T03:25:39;19.70;90.12
71523;HTU21D;59343;51.102;5.884;2023-10-13T03:28:25;19.69;90.22
71523;HTU21D;59343;51.102;5.884;2023-10-13T03:31:00;19.70;90.36
71523;HTU21D;59343;51.102;5.884;2023-10-13T03:33:30;19.71;90.37
71523;HTU21D;59343;51.102;5.884;2023-10-13T03:35:59;19.73;90.22
71523;HTU21D;59343;51.102;5.884;2023-10-13T03:38:46;19.73;90.23
71523;HTU21D;59343;51.102;5.884;2023-10-13T03:41:32;19.71;90.33
71523;HTU21D;59343;51.102;5.884;2023-10-13T03:44:06;19.73;90.26
71523;HTU21D;59343;51.102;5.884;2023-10-13T03:46:47;19.72;90.39
71523;HTU21D;59343;51.102;5.884;2023-10-13T03:49:25;19.72;90.41
71523;HTU21D;59343;51.102;5.884;2023-10-13T03:52:27;19.75;90.44
71523;HTU21D;59343;51.102;5.884;2023-10-13T03:55:11;19.74;90.57
71523;HTU21D;59343;51.102;5.884;2023-10-13T03:57:47;19.74;90.64
71523;HTU21D;59343;51.102;5.884;2023-10-13T04:00:35;19.73;90.92
71523;HTU21D;59343;51.102;5.884;2023-10-13T04:03:08;19.71;91.11
71523;HTU21D;59343;51.102;5.884;2023-10-13T04:06:27;19.71;91.25
71523;HTU21D;59343;51.102;5.884;2023-10-13T04:09:42;19.71;91.27
71523;HTU21D;59343;51.102;5.884;2023-10-13T04:12:16;19.71;91.39
71523;HTU21D;59343;51.102;5.884;2023-10-13T04:15:31;19.71;91.44
71523;HTU21D;59343;51.102;5.884;2023-10-13T04:18:09;19.72;91.49
71523;HTU21D;59343;51.102;5.884;2023-10-13T04:21:05;19.72;91.54
71523;HTU21D;59343;51.102;5.884;2023-10-13T04:23:47;19.72;91.47
71523;HTU21D;59343;51.102;5.884;2023-10-13T04:26:43;19.71;91.57
71523;HTU21D;59343;51.102;5.884;2023-10-13T04:29:42;19.72;91.68
71523;HTU21D;59343;51.102;5.884;2023-10-13T04:32:30;19.72;91.72
71523;HTU21D;59343;51.102;5.884;2023-10-13T04:35:05;19.73;91.68
71523;HTU21D;59343;51.102;5.884;2023-10-13T04:37:37;19.73;91.85
71523;HTU21D;59343;51.102;5.884;2023-10-13T04:40:20;19.72;91.78
71523;HTU21D;59343;51.102;5.884;2023-10-13T04:42:51;19.72;91.98
71523;HTU21D;59343;51.102;5.884;2023-10-13T04:45:26;19.72;92.16
71523;HTU21D;59343;51.102;5.884;2023-10-13T04:48:10;19.73;92.19
71523;HTU21D;59343;51.102;5.884;2023-10-13T04:50:48;19.75;92.19
71523;HTU21D;59343;51.102;5.884;2023-10-13T04:53:59;19.74;92.42
71523;HTU21D;59343;51.102;5.884;2023-10-13T04:57:39;19.74;92.40
71523;HTU21D;59343;51.102;5.884;2023-10-13T05:00:35;19.76;92.48
71523;HTU21D;59343;51.102;5.884;2023-10-13T05:03:34;19.77;92.52
71523;HTU21D;59343;51.102;5.884;2023-10-13T05:06:31;19.76;92.47
71523;HTU21D;59343;51.102;5.884;2023-10-13T05:09:21;19.74;92.50
71523;HTU21D;59343;51.102;5.884;2023-10-13T05:12:06;19.72;92.46
71523;HTU21D;59343;51.102;5.884;2023-10-13T05:14:55;19.70;92.64
71523;HTU21D;59343;51.102;5.884;2023-10-13T05:17:44;19.70;92.53
71523;HTU21D;59343;51.102;5.884;2023-10-13T05:20:31;19.68;92.58
71523;HTU21D;59343;51.102;5.884;2023-10-13T05:23:41;19.69;92.59
71523;HTU21D;59343;51.102;5.884;2023-10-13T05:26:43;19.69;92.45
71523;HTU21D;59343;51.102;5.884;2023-10-13T05:29:38;19.70;92.39
71523;HTU21D;59343;51.102;5.884;2023-10-13T05:32:23;19.69;92.35
71523;HTU21D;59343;51.102;5.884;2023-10-13T05:35:44;19.70;92.37
71523;HTU21D;59343;51.102;5.884;2023-10-13T05:38:55;19.72;92.33
71523;HTU21D;59343;51.102;5.884;2023-10-13T05:41:55;19.70;92.39
71523;HTU21D;59343;51.102;5.884;2023-10-13T05:44:45;19.71;92.32
71523;HTU21D;59343;51.102;5.884;2023-10-13T05:47:33;19.70;92.27
71523;HTU21D;59343;51.102;5.884;2023-10-13T05:50:38;19.67;92.56
71523;HTU21D;59343;51.102;5.884;2023-10-13T05:53:23;19.65;92.80
71523;HTU21D;59343;51.102;5.884;2023-10-13T05:56:13;19.63;92.87
71523;HTU21D;59343;51.102;5.884;2023-10-13T05:59:06;19.62;93.02
71523;HTU21D;59343;51.102;5.884;2023-10-13T06:01:53;19.63;93.17
71523;HTU21D;59343;51.102;5.884;2023-10-13T06:04:38;19.66;93.11
71523;HTU21D;59343;51.102;5.884;2023-10-13T06:11:56;19.71;93.00
71523;HTU21D;59343;51.102;5.884;2023-10-13T06:14:47;19.75;92.82
71523;HTU21D;59343;51.102;5.884;2023-10-13T06:17:39;19.79;92.69
71523;HTU21D;59343;51.102;5.884;2023-10-13T06:20:53;19.82;92.40
71523;HTU21D;59343;51.102;5.884;2023-10-13T06:24:19;19.85;92.30
71523;HTU21D;59343;51.102;5.884;2023-10-13T06:27:54;19.87;92.22
71523;HTU21D;59343;51.102;5.884;2023-10-13T06:30:40;19.90;91.95
71523;HTU21D;59343;51.102;5.884;2023-10-13T06:33:15;19.89;91.95
71523;HTU21D;59343;51.102;5.884;2023-10-13T06:36:01;19.91;91.94
71523;HTU21D;59343;51.102;5.884;2023-10-13T06:38:33;19.95;92.00
71523;HTU21D;59343;51.102;5.884;2023-10-13T06:41:16;19.95;91.64
71523;HTU21D;59343;51.102;5.884;2023-10-13T06:44:14;19.98;91.43
71523;HTU21D;59343;51.102;5.884;2023-10-13T06:46:49;20.01;91.25
71523;HTU21D;59343;51.102;5.884;2023-10-13T06:49:22;20.01;91.10
71523;HTU21D;59343;51.102;5.884;2023-10-13T06:51:53;20.02;90.89
71523;HTU21D;59343;51.102;5.884;2023-10-13T06:54:20;20.02;90.83
71523;HTU21D;59343;51.102;5.884;2023-10-13T06:56:48;20.04;90.79
71523;HTU21D;59343;51.102;5.884;2023-10-13T06:59:22;20.05;90.83
71523;HTU21D;59343;51.102;5.884;2023-10-13T07:01:53;20.09;90.73
71523;HTU21D;59343;51.102;5.884;2023-10-13T07:04:23;20.10;90.49
71523;HTU21D;59343;51.102;5.884;2023-10-13T07:06:49;20.14;90.50
71523;HTU21D;59343;51.102;5.884;2023-10-13T07:09:17;20.17;90.12
71523;HTU21D;59343;51.102;5.884;2023-10-13T07:12:03;20.22;90.03
71523;HTU21D;59343;51.102;5.884;2023-10-13T07:14:33;20.28;89.76
71523;HTU21D;59343;51.102;5.884;2023-10-13T07:17:06;20.33;89.13
71523;HTU21D;59343;51.102;5.884;2023-10-13T07:19:36;20.34;88.75
71523;HTU21D;59343;51.102;5.884;2023-10-13T07:22:19;20.35;88.63
71523;HTU21D;59343;51.102;5.884;2023-10-13T07:24:47;20.40;88.32
71523;HTU21D;59343;51.102;5.884;2023-10-13T07:27:20;20.43;87.97
71523;HTU21D;59343;51.102;5.884;2023-10-13T07:32:25;20.53;87.34
71523;HTU21D;59343;51.102;5.884;2023-10-13T07:34:53;20.59;86.81
71523;HTU21D;59343;51.102;5.884;2023-10-13T07:37:24;20.59;86.64
71523;HTU21D;59343;51.102;5.884;2023-10-13T07:39:58;20.64;86.27
71523;HTU21D;59343;51.102;5.884;2023-10-13T07:42:25;20.71;85.59
71523;HTU21D;59343;51.102;5.884;2023-10-13T07:44:58;20.73;85.06
71523;HTU21D;59343;51.102;5.884;2023-10-13T07:47:24;20.76;84.69
71523;HTU21D;59343;51.102;5.884;2023-10-13T07:49:54;20.76;84.36
71523;HTU21D;59343;51.102;5.884;2023-10-13T07:52:22;20.79;83.94
71523;HTU21D;59343;51.102;5.884;2023-10-13T07:54:50;20.86;83.14
71523;HTU21D;59343;51.102;5.884;2023-10-13T07:57:26;20.88;82.72
71523;HTU21D;59343;51.102;5.884;2023-10-13T08:00:01;20.94;81.96
71523;HTU21D;59343;51.102;5.884;2023-10-13T08:03:00;21.00;81.55
71523;HTU21D;59343;51.102;5.884;2023-10-13T08:05:53;21.11;80.54
71523;HTU21D;59343;51.102;5.884;2023-10-13T08:08:33;21.15;80.04
71523;HTU21D;59343;51.102;5.884;2023-10-13T08:11:06;21.21;79.69
71523;HTU21D;59343;51.102;5.884;2023-10-13T08:13:50;21.29;79.00
71523;HTU21D;59343;51.102;5.884;2023-10-13T08:16:29;21.33;78.32
71523;HTU21D;59343;51.102;5.884;2023-10-13T08:19:15;21.40;77.92
71523;HTU21D;59343;51.102;5.884;2023-10-13T08:21:48;21.49;77.11
71523;HTU21D;59343;51.102;5.884;2023-10-13T08:24:53;21.60;75.88
71523;HTU21D;59343;51.102;5.884;2023-10-13T08:27:20;21.64;75.49
71523;HTU21D;59343;51.102;5.884;2023-10-13T08:30:14;21.67;75.21
71523;HTU21D;59343;51.102;5.884;2023-10-13T08:32:58;21.72;75.18
71523;HTU21D;59343;51.102;5.884;2023-10-13T08:35:26;21.76;74.45
71523;HTU21D;59343;51.102;5.884;2023-10-13T08:38:03;21.82;73.20
71523;HTU21D;59343;51.102;5.884;2023-10-13T08:40:31;21.83;73.30
71523;HTU21D;59343;51.102;5.884;2023-10-13T08:43:20;21.90;72.64
71523;HTU21D;59343;51.102;5.884;2023-10-13T08:46:14;21.97;72.01
71523;HTU21D;59343;51.102;5.884;2023-10-13T08:49:12;21.98;71.42
71523;HTU21D;59343;51.102;5.884;2023-10-13T08:51:44;22.04;71.15
71523;HTU21D;59343;51.102;5.884;2023-10-13T08:54:35;22.09;70.80
71523;HTU21D;59343;51.102;5.884;2023-10-13T08:57:34;22.10;70.55
71523;HTU21D;59343;51.102;5.884;2023-10-13T09:00:00;22.14;70.42
71523;HTU21D;59343;51.102;5.884;2023-10-13T09:07:04;22.38;69.28
71523;HTU21D;59343;51.102;5.884;2023-10-13T09:10:00;22.53;69.10
71523;HTU21D;59343;51.102;5.884;2023-10-13T09:12:40;22.62;68.32
71523;HTU21D;59343;51.102;5.884;2023-10-13T09:15:33;22.69;67.84
71523;HTU21D;59343;51.102;5.884;2023-10-13T09:18:26;22.71;67.36
71523;HTU21D;59343;51.102;5.884;2023-10-13T09:21:38;22.75;67.39
71523;HTU21D;59343;51.102;5.884;2023-10-13T09:24:09;22.81;66.59
71523;HTU21D;59343;51.102;5.884;2023-10-13T09:26:48;22.81;67.11
71523;HTU21D;59343;51.102;5.884;2023-10-13T09:29:27;22.85;66.93
71523;HTU21D;59343;51.102;5.884;2023-10-13T09:32:00;22.87;66.94
71523;HTU21D;59343;51.102;5.884;2023-10-13T09:34:28;22.92;66.72
71523;HTU21D;59343;51.102;5.884;2023-10-13T09:37:02;22.94;66.33
71523;HTU21D;59343;51.102;5.884;2023-10-13T09:39:33;22.99;65.77
71523;HTU21D;59343;51.102;5.884;2023-10-13T09:42:29;22.99;65.93
71523;HTU21D;59343;51.102;5.884;2023-10-13T09:44:56;23.01;65.47
71523;HTU21D;59343;51.102;5.884;2023-10-13T09:47:27;23.03;65.83
71523;HTU21D;59343;51.102;5.884;2023-10-13T09:50:04;23.09;65.85
71523;HTU21D;59343;51.102;5.884;2023-10-13T09:52:43;23.12;65.64
71523;HTU21D;59343;51.102;5.884;2023-10-13T09:55:28;23.15;65.74
71523;HTU21D;59343;51.102;5.884;2023-10-13T09:58:10;23.21;65.27
71523;HTU21D;59343;51.102;5.884;2023-10-13T10:00:51;23.24;65.27
71523;HTU21D;59343;51.102;5.884;2023-10-13T10:03:44;23.32;65.50
71523;HTU21D;59343;51.102;5.884;2023-10-13T10:06:23;23.50;65.53
71523;HTU21D;59343;51.102;5.884;2023-10-13T10:09:17;23.66;64.30
71523;HTU21D;59343;51.102;5.884;2023-10-13T10:17:48;23.81;63.40
71523;HTU21D;59343;51.102;5.884;2023-10-13T10:20:30;23.83;63.40
71523;HTU21D;59343;51.102;5.884;2023-10-13T10:23:25;23.92;62.92
71523;HTU21D;59343;51.102;5.884;2023-10-13T10:25:56;23.94;62.54
71523;HTU21D;59343;51.102;5.884;2023-10-13T10:28:38;23.87;62.47
71523;HTU21D;59343;51.102;5.884;2023-10-13T10:31:11;23.86;62.06
71523;HTU21D;59343;51.102;5.884;2023-10-13T10:33:46;23.84;62.22
71523;HTU21D;59343;51.102;5.884;2023-10-13T10:36:17;23.85;62.50
71523;HTU21D;59343;51.102;5.884;2023-10-13T10:38:54;23.88;62.67
71523;HTU21D;59343;51.102;5.884;2023-10-13T10:41:26;23.96;62.76
71523;HTU21D;59343;51.102;5.884;2023-10-13T10:43:58;24.11;62.94
71523;HTU21D;59343;51.102;5.884;2023-10-13T10:46:29;24.21;61.95
71523;HTU21D;59343;51.102;5.884;2023-10-13T10:49:05;24.21;61.71
71523;HTU21D;59343;51.102;5.884;2023-10-13T10:51:44;24.18;61.60
71523;HTU21D;59343;51.102;5.884;2023-10-13T10:54:20;24.15;61.66
71523;HTU21D;59343;51.102;5.884;2023-10-13T10:56:46;24.13;61.38
71523;HTU21D;59343;51.102;5.884;2023-10-13T10:59:18;24.14;61.25
71523;HTU21D;59343;51.102;5.884;2023-10-13T11:01:46;24.13;61.58
71523;HTU21D;59343;51.102;5.884;2023-10-13T11:04:13;24.24;61.81
71523;HTU21D;59343;51.102;5.884;2023-10-13T11:06:53;24.42;61.77
71523;HTU21D;59343;51.102;5.884;2023-10-13T11:09:30;24.63;60.55
71523;HTU21D;59343;51.102;5.884;2023-10-13T11:12:13;24.77;59.72
71523;HTU21D;59343;51.102;5.884;2023-10-13T11:15:03;24.82;59.38
71523;HTU21D;59343;51.102;5.884;2023-10-13T11:17:35;24.75;59.28
71523;HTU21D;59343;51.102;5.884;2023-10-13T11:20:19;24.71;59.40
71523;HTU21D;59343;51.102;5.884;2023-10-13T11:23:13;24.63;59.70
71523;HTU21D;59343;51.102;5.884;2023-10-13T11:25:39;24.63;59.26
71523;HTU21D;59343;51.102;5.884;2023-10-13T11:28:14;24.63;59.01
71523;HTU21D;59343;51.102;5.884;2023-10-13T11:30:44;24.59;59.18
71523;HTU21D;59343;51.102;5.884;2023-10-13T11:33:18;24.58;59.28
71523;HTU21D;59343;51.102;5.884;2023-10-13T11:35:47;24.53;59.60
71523;HTU21D;59343;51.102;5.884;2023-10-13T11:38:19;24.50;59.85
71523;HTU21D;59343;51.102;5.884;2023-10-13T11:43:35;24.49;59.48
71523;HTU21D;59343;51.102;5.884;2023-10-13T11:46:26;24.54;58.70
71523;HTU21D;59343;51.102;5.884;2023-10-13T11:49:02;24.53;58.84
71523;HTU21D;59343;51.102;5.884;2023-10-13T11:51:48;24.57;59.02
71523;HTU21D;59343;51.102;5.884;2023-10-13T11:54:17;24.59;58.60
71523;HTU21D;59343;51.102;5.884;2023-10-13T11:56:47;24.61;58.64
71523;HTU21D;59343;51.102;5.884;2023-10-13T11:59:14;24.73;58.71
71523;HTU21D;59343;51.102;5.884;2023-10-13T12:01:47;24.92;58.25
71523;HTU21D;59343;51.102;5.884;2023-10-13T12:04:33;25.05;57.67
71523;HTU21D;59343;51.102;5.884;2023-10-13T12:07:18;25.14;57.06
71523;HTU21D;59343;51.102;5.884;2023-10-13T12:10:06;25.22;56.21
71523;HTU21D;59343;51.102;5.884;2023-10-13T12:12:41;25.20;56.23
71523;HTU21D;59343;51.102;5.884;2023-10-13T12:15:09;25.16;56.23
71523;HTU21D;59343;51.102;5.884;2023-10-13T12:17:36;25.10;56.28
71523;HTU21D;59343;51.102;5.884;2023-10-13T12:20:03;25.04;56.13
71523;HTU21D;59343;51.102;5.884;2023-10-13T12:22:37;24.93;56.22
71523;HTU21D;59343;51.102;5.884;2023-10-13T12:25:09;24.88;56.50
71523;HTU21D;59343;51.102;5.884;2023-10-13T12:28:04;24.78;56.54
71523;HTU21D;59343;51.102;5.884;2023-10-13T12:30:47;24.78;56.32
71523;HTU21D;59343;51.102;5.884;2023-10-13T12:33:20;24.69;56.71
71523;HTU21D;59343;51.102;5.884;2023-10-13T12:35:59;24.70;56.92
71523;HTU21D;59343;51.102;5.884;2023-10-13T12:38:36;24.71;56.32
71523;HTU21D;59343;51.102;5.884;2023-10-13T12:41:20;24.72;56.18
71523;HTU21D;59343;51.102;5.884;2023-10-13T12:44:06;24.78;56.05
71523;HTU21D;59343;51.102;5.884;2023-10-13T12:46:52;24.83;55.81
71523;HTU21D;59343;51.102;5.884;2023-10-13T12:49:36;24.88;55.59
71523;HTU21D;59343;51.102;5.884;2023-10-13T12:52:12;24.89;55.33
71523;HTU21D;59343;51.102;5.884;2023-10-13T12:54:48;24.90;55.10
71523;HTU21D;59343;51.102;5.884;2023-10-13T12:57:27;24.85;54.96
71523;HTU21D;59343;51.102;5.884;2023-10-13T12:59:54;24.80;54.84
71523;HTU21D;59343;51.102;5.884;2023-10-13T13:02:24;24.80;55.10
71523;HTU21D;59343;51.102;5.884;2023-10-13T13:04:52;24.87;55.07
71523;HTU21D;59343;51.102;5.884;2023-10-13T13:07:23;24.85;54.73
71523;HTU21D;59343;51.102;5.884;2023-10-13T13:09:55;24.82;54.71
71523;HTU21D;59343;51.102;5.884;2023-10-13T13:12:24;24.80;54.42
71523;HTU21D;59343;51.102;5.884;2023-10-13T13:14:51;24.71;54.85
71523;HTU21D;59343;51.102;5.884;2023-10-13T13:17:23;24.69;54.78
71523;HTU21D;59343;51.102;5.884;2023-10-13T13:19:49;24.66;55.04
71523;HTU21D;59343;51.102;5.884;2023-10-13T13:22:15;24.63;54.91
71523;HTU21D;59343;51.102;5.884;2023-10-13T13:24:44;24.60;55.23
71523;HTU21D;59343;51.102;5.884;2023-10-13T13:27:11;24.60;55.03
71523;HTU21D;59343;51.102;5.884;2023-10-13T13:29:42;24.51;55.42
71523;HTU21D;59343;51.102;5.884;2023-10-13T13:32:09;24.48;55.56
71523;HTU21D;59343;51.102;5.884;2023-10-13T13:34:55;24.44;55.78
71523;HTU21D;59343;51.102;5.884;2023-10-13T13:37:31;24.45;55.58
71523;HTU21D;59343;51.102;5.884;2023-10-13T13:39:57;24.40;55.71
71523;HTU21D;59343;51.102;5.884;2023-10-13T13:42:43;24.39;56.07
71523;HTU21D;59343;51.102;5.884;2023-10-13T13:45:16;24.39;55.85
71523;HTU21D;59343;51.102;5.884;2023-10-13T13:47:58;24.39;55.91
71523;HTU21D;59343;51.102;5.884;2023-10-13T13:50:26;24.36;55.80
71523;HTU21D;59343;51.102;5.884;2023-10-13T13:52:57;24.35;55.65
71523;HTU21D;59343;51.102;5.884;2023-10-13T13:55:24;24.34;55.16
71523;HTU21D;59343;51.102;5.884;2023-10-13T13:57:57;24.26;55.31
71523;HTU21D;59343;51.102;5.884;2023-10-13T14:00:24;24.25;55.52
71523;HTU21D;59343;51.102;5.884;2023-10-13T14:03:08;24.25;55.07
71523;HTU21D;59343;51.102;5.884;2023-10-13T14:05:42;24.19;55.42
71523;HTU21D;59343;51.102;5.884;2023-10-13T14:08:08;24.18;55.36
71523;HTU21D;59343;51.102;5.884;2023-10-13T14:10:40;24.16;55.13
71523;HTU21D;59343;51.102;5.884;2023-10-13T14:13:24;24.14;55.08
71523;HTU21D;59343;51.102;5.884;2023-10-13T14:16:10;24.14;54.92
71523;HTU21D;59343;51.102;5.884;2023-10-13T14:18:46;24.09;55.28
71523;HTU21D;59343;51.102;5.884;2023-10-13T14:21:12;24.10;54.97
71523;HTU21D;59343;51.102;5.884;2023-10-13T14:23:48;24.06;55.19
71523;HTU21D;59343;51.102;5.884;2023-10-13T14:26:16;24.06;55.39
71523;HTU21D;59343;51.102;5.884;2023-10-13T14:28:49;24.05;55.49
71523;HTU21D;59343;51.102;5.884;2023-10-13T14:31:28;24.01;55.51
71523;HTU21D;59343;51.102;5.884;2023-10-13T14:33:54;23.97;55.65
71523;HTU21D;59343;51.102;5.884;2023-10-13T14:36:19;23.96;55.70
71523;HTU21D;59343;51.102;5.884;2023-10-13T14:38:49;23.92;55.65
71523;HTU21D;59343;51.102;5.884;2023-10-13T14:41:18;23.88;55.77
71523;HTU21D;59343;51.102;5.884;2023-10-13T14:43:47;23.86;55.79
71523;HTU21D;59343;51.102;5.884;2023-10-13T14:50:06;23.81;56.13
71523;HTU21D;59343;51.102;5.884;2023-10-13T14:52:35;23.81;56.10
71523;HTU21D;59343;51.102;5.884;2023-10-13T14:55:00;23.81;56.03
71523;HTU21D;59343;51.102;5.884;2023-10-13T14:57:26;23.75;56.05
71523;HTU21D;59343;51.102;5.884;2023-10-13T14:59:53;23.72;56.29
71523;HTU21D;59343;51.102;5.884;2023-10-13T15:02:20;23.70;56.48
71523;HTU21D;59343;51.102;5.884;2023-10-13T15:04:47;23.69;56.65
71523;HTU21D;59343;51.102;5.884;2023-10-13T15:07:17;23.66;57.04
71523;HTU21D;59343;51.102;5.884;2023-10-13T15:09:46;23.62;57.18
71523;HTU21D;59343;51.102;5.884;2023-10-13T15:12:12;23.59;57.02
71523;HTU21D;59343;51.102;5.884;2023-10-13T15:14:40;23.59;57.08
71523;HTU21D;59343;51.102;5.884;2023-10-13T15:17:47;23.55;57.09
71523;HTU21D;59343;51.102;5.884;2023-10-13T15:20:14;23.54;57.04
71523;HTU21D;59343;51.102;5.884;2023-10-13T15:22:44;23.52;57.14
71523;HTU21D;59343;51.102;5.884;2023-10-13T15:25:10;23.52;57.22
71523;HTU21D;59343;51.102;5.884;2023-10-13T15:27:59;23.51;57.04
71523;HTU21D;59343;51.102;5.884;2023-10-13T15:30:43;23.53;56.93
71523;HTU21D;59343;51.102;5.884;2023-10-13T15:33:30;23.50;57.07
71523;HTU21D;59343;51.102;5.884;2023-10-13T15:36:23;23.50;57.12
71523;HTU21D;59343;51.102;5.884;2023-10-13T15:38:52;23.49;56.87
71523;HTU21D;59343;51.102;5.884;2023-10-13T15:41:26;23.49;56.86
71523;HTU21D;59343;51.102;5.884;2023-10-13T15:43:53;23.44;56.96
71523;HTU21D;59343;51.102;5.884;2023-10-13T15:46:21;23.46;56.86
71523;HTU21D;59343;51.102;5.884;2023-10-13T15:48:51;23.44;56.90
71523;HTU21D;59343;51.102;5.884;2023-10-13T15:51:18;23.45;56.82
71523;HTU21D;59343;51.102;5.884;2023-10-13T15:53:44;23.42;56.98
71523;HTU21D;59343;51.102;5.884;2023-10-13T15:56:16;23.40;57.10
71523;HTU21D;59343;51.102;5.884;2023-10-13T15:58:48;23.39;57.29
71523;HTU21D;59343;51.102;5.884;2023-10-13T16:01:16;23.40;57.19
71523;HTU21D;59343;51.102;5.884;2023-10-13T16:03:44;23.38;57.23
71523;HTU21D;59343;51.102;5.884;2023-10-13T16:06:15;23.38;57.21
71523;HTU21D;59343;51.102;5.884;2023-10-13T16:08:43;23.39;57.32
71523;HTU21D;59343;51.102;5.884;2023-10-13T16:11:13;23.34;57.49
71523;HTU21D;59343;51.102;5.884;2023-10-13T16:13:40;23.32;57.52
71523;HTU21D;59343;51.102;5.884;2023-10-13T16:16:23;23.36;57.48
71523;HTU21D;59343;51.102;5.884;2023-10-13T16:18:50;23.32;57.52
71523;HTU21D;59343;51.102;5.884;2023-10-13T16:24:45;23.29;57.78
71523;HTU21D;59343;51.102;5.884;2023-10-13T16:31:50;23.23;58.13
71523;HTU21D;59343;51.102;5.884;2023-10-13T16:34:25;23.22;58.29
71523;HTU21D;59343;51.102;5.884;2023-10-13T16:36:51;23.17;58.99
71523;HTU21D;59343;51.102;5.884;2023-10-13T16:39:35;23.10;59.50
71523;HTU21D;59343;51.102;5.884;2023-10-13T16:42:07;23.05;60.01
71523;HTU21D;59343;51.102;5.884;2023-10-13T16:44:35;23.00;60.36
71523;HTU21D;59343;51.102;5.884;2023-10-13T16:47:04;22.97;60.63
71523;HTU21D;59343;51.102;5.884;2023-10-13T16:49:31;22.93;60.98
71523;HTU21D;59343;51.102;5.884;2023-10-13T16:52:04;22.83;61.55
71523;HTU21D;59343;51.102;5.884;2023-10-13T16:54:30;22.77;61.83
71523;HTU21D;59343;51.102;5.884;2023-10-13T16:56:58;22.70;62.41
71523;HTU21D;59343;51.102;5.884;2023-10-13T16:59:28;22.65;62.60
71523;HTU21D;59343;51.102;5.884;2023-10-13T17:01:58;22.60;62.85
71523;HTU21D;59343;51.102;5.884;2023-10-13T17:04:42;22.56;62.96
71523;HTU21D;59343;51.102;5.884;2023-10-13T17:07:09;22.52;63.21
71523;HTU21D;59343;51.102;5.884;2023-10-13T17:09:35;22.48;63.60